Time;durP1;ratioP1;P1;durP2;ratioP2;P2;SDS_P1;SDS_P2;PMS_P1;PMS_P2;Temp;Humidity;BMP_temperature;BMP_pressure;BME280_temperature;BME280_humidity;BME280_pressure;Samples;Min_cycle;Max_cycle;Signal;HPM_P1;HPM_P2
2021/10/27 00:00:11;;;;;;;13.70;6.23;;;;;;;6.60;100.00;97128.72;5045049;28;20044;-73
2021/10/27 00:02:40;;;;;;;10.17;6.03;;;;;;;6.55;100.00;97130.88;5050647;28;20072;-73
2021/10/27 00:05:06;;;;;;;9.00;6.17;;;;;;;6.49;100.00;97132.13;5026146;28;20056;-73
2021/10/27 00:07:32;;;;;;;11.77;6.33;;;;;;;6.47;100.00;97127.97;5014878;28;20041;-73
2021/10/27 00:09:58;;;;;;;9.37;6.20;;;;;;;6.31;100.00;97128.25;5033712;28;20036;-73
2021/10/27 00:12:24;;;;;;;9.37;6.33;;;;;;;6.22;100.00;97129.75;5017921;28;20481;-73
2021/10/27 00:14:50;;;;;;;13.90;7.30;;;;;;;6.30;100.00;97130.00;5042841;28;20035;-73
2021/10/27 00:17:16;;;;;;;18.43;11.20;;;;;;;6.33;100.00;97134.19;5059232;28;20036;-73
2021/10/27 00:19:42;;;;;;;21.77;13.07;;;;;;;6.34;100.00;97130.66;5036035;28;20025;-73
2021/10/27 00:22:07;;;;;;;22.03;11.80;;;;;;;6.27;100.00;97127.66;5039281;28;20035;-73
2021/10/27 00:24:33;;;;;;;19.90;10.47;;;;;;;6.22;100.00;97131.53;5033710;28;20178;-73
2021/10/27 00:26:59;;;;;;;15.37;10.70;;;;;;;6.20;100.00;97121.19;5047883;28;20035;-73
2021/10/27 00:29:24;;;;;;;15.00;8.70;;;;;;;6.23;100.00;97128.78;5032151;28;20047;-73
2021/10/27 00:31:50;;;;;;;11.73;7.50;;;;;;;6.25;100.00;97124.31;5030301;28;20098;-73
2021/10/27 00:34:16;;;;;;;9.47;6.33;;;;;;;6.29;100.00;97115.28;5038240;28;20531;-73
2021/10/27 00:36:41;;;;;;;11.77;5.90;;;;;;;6.35;100.00;97125.31;5060712;28;20033;-73
2021/10/27 00:39:07;;;;;;;11.83;6.50;;;;;;;6.37;100.00;97125.19;5050803;28;20068;-73
2021/10/27 00:41:33;;;;;;;10.17;5.93;;;;;;;6.35;100.00;97127.91;5049390;28;20545;-73
2021/10/27 00:43:58;;;;;;;9.13;5.50;;;;;;;6.33;100.00;97135.03;5051145;28;20029;-73
2021/10/27 00:46:25;;;;;;;9.63;5.50;;;;;;;6.26;100.00;97128.56;5048520;28;20079;-73
2021/10/27 00:48:52;;;;;;;12.93;7.27;;;;;;;6.00;100.00;97129.59;5051613;28;20036;-73
2021/10/27 00:51:18;;;;;;;13.43;8.43;;;;;;;5.77;100.00;97142.50;5059353;28;20040;-73
2021/10/27 00:53:46;;;;;;;13.37;8.80;;;;;;;5.64;100.00;97139.88;5032492;28;20032;-73
2021/10/27 00:56:13;;;;;;;16.63;8.90;;;;;;;5.68;100.00;97135.28;5021227;28;20060;-73
2021/10/27 00:58:39;;;;;;;35.87;14.93;;;;;;;5.62;100.00;97136.53;5031390;28;20112;-73
2021/10/27 01:01:05;;;;;;;23.73;10.43;;;;;;;5.65;100.00;97131.13;5022508;28;20616;-73
2021/10/27 01:03:32;;;;;;;17.07;8.93;;;;;;;5.67;100.00;97126.63;5055033;28;20032;-73
2021/10/27 01:05:58;;;;;;;15.50;8.33;;;;;;;5.71;100.00;97116.81;5053923;28;20040;-73
2021/10/27 01:08:24;;;;;;;12.77;7.43;;;;;;;5.72;100.00;97115.88;5050908;28;20036;-73
2021/10/27 01:10:50;;;;;;;12.93;7.00;;;;;;;5.73;100.00;97117.53;5049853;28;20071;-73
2021/10/27 01:13:15;;;;;;;10.73;6.67;;;;;;;5.76;100.00;97112.09;5055914;28;20032;-73
2021/10/27 01:15:41;;;;;;;12.10;6.60;;;;;;;5.77;100.00;97113.78;5050282;28;20029;-73
2021/10/27 01:18:08;;;;;;;11.60;6.70;;;;;;;5.83;100.00;97107.28;5031463;28;20028;-73
2021/10/27 01:20:34;;;;;;;15.07;7.17;;;;;;;5.82;100.00;97116.88;5059480;28;20029;-73
2021/10/27 01:23:01;;;;;;;12.57;6.37;;;;;;;5.80;100.00;97103.13;5056449;28;20033;-73
2021/10/27 01:25:26;;;;;;;10.90;5.87;;;;;;;5.74;100.00;97114.00;5036095;28;20021;-73
2021/10/27 01:27:53;;;;;;;13.10;7.73;;;;;;;5.69;100.00;97108.25;5049958;28;20382;-73
2021/10/27 01:30:21;;;;;;;10.13;6.57;;;;;;;5.63;100.00;97106.91;5039630;28;20127;-73
2021/10/27 01:32:49;;;;;;;10.30;6.67;;;;;;;5.64;100.00;97107.75;5025194;28;20112;-73
2021/10/27 01:35:16;;;;;;;12.07;6.90;;;;;;;5.58;100.00;97101.16;5052705;28;20083;-73
2021/10/27 01:37:44;;;;;;;11.67;5.77;;;;;;;5.56;100.00;97097.81;5029189;28;20024;-73
2021/10/27 01:40:18;;;;;;;11.10;6.60;;;;;;;5.50;100.00;97106.09;5061895;28;20119;-73
2021/10/27 01:42:44;;;;;;;13.03;6.37;;;;;;;5.54;100.00;97106.72;5049842;28;20067;-73
2021/10/27 01:45:11;;;;;;;8.67;5.70;;;;;;;5.46;100.00;97103.78;5030917;28;20029;-73
2021/10/27 01:47:41;;;;;;;9.40;5.57;;;;;;;5.43;100.00;97110.91;5050167;28;20083;-73
2021/10/27 01:50:07;;;;;;;9.87;5.60;;;;;;;5.38;100.00;97109.53;5054074;28;20040;-73
2021/10/27 01:52:34;;;;;;;11.00;6.70;;;;;;;5.40;100.00;97105.06;5049737;28;20643;-73
2021/10/27 01:55:00;;;;;;;13.97;6.67;;;;;;;5.38;100.00;97112.16;5031673;28;20037;-73
2021/10/27 01:57:28;;;;;;;11.53;6.20;;;;;;;5.34;100.00;97111.53;5050888;28;20526;-73
2021/10/27 01:59:53;;;;;;;10.93;6.07;;;;;;;5.28;100.00;97108.50;5041119;28;20048;-73
2021/10/27 02:02:19;;;;;;;11.30;6.47;;;;;;;5.22;100.00;97106.31;5033607;28;20101;-73
2021/10/27 02:04:45;;;;;;;11.10;6.43;;;;;;;5.19;100.00;97104.75;5053042;28;20112;-73
2021/10/27 02:07:11;;;;;;;14.43;6.67;;;;;;;5.22;100.00;97120.19;5060867;28;20544;-73
2021/10/27 02:09:37;;;;;;;10.10;6.23;;;;;;;5.15;100.00;97116.31;5057677;28;20047;-73
2021/10/27 02:12:05;;;;;;;10.83;6.27;;;;;;;5.06;100.00;97117.78;5051334;28;20029;-73
2021/10/27 02:14:32;;;;;;;10.90;6.47;;;;;;;5.08;100.00;97115.06;5038095;28;20131;-72
2021/10/27 02:16:57;;;;;;;15.70;6.60;;;;;;;5.13;100.00;97112.97;5035579;28;20024;-73
2021/10/27 02:19:23;;;;;;;12.43;7.73;;;;;;;5.19;100.00;97112.56;5028538;28;20400;-73
2021/10/27 02:21:49;;;;;;;11.57;6.70;;;;;;;5.06;100.00;97120.38;5046574;28;20110;-72
2021/10/27 02:24:15;;;;;;;9.73;6.43;;;;;;;5.05;100.00;97125.72;5053897;28;20599;-72
2021/10/27 02:26:42;;;;;;;9.33;5.87;;;;;;;5.06;100.00;97122.97;5054857;28;20032;-72
2021/10/27 02:29:08;;;;;;;11.77;5.97;;;;;;;5.04;100.00;97131.88;5042105;28;20142;-73
2021/10/27 02:31:33;;;;;;;12.10;6.07;;;;;;;4.95;100.00;97134.13;5054922;28;20769;-73
2021/10/27 02:33:59;;;;;;;11.13;6.43;;;;;;;4.89;100.00;97129.31;5051702;28;20039;-73
2021/10/27 02:36:26;;;;;;;8.63;6.10;;;;;;;4.90;100.00;97124.97;5054768;28;20028;-73
2021/10/27 02:38:53;;;;;;;13.87;8.23;;;;;;;4.87;100.00;97128.63;5049439;28;20086;-73
2021/10/27 02:41:18;;;;;;;14.50;6.77;;;;;;;4.86;100.00;97132.16;5049771;28;20028;-73
2021/10/27 02:43:45;;;;;;;9.83;6.03;;;;;;;4.87;100.00;97136.44;5025058;28;20029;-73
2021/10/27 02:46:11;;;;;;;12.33;6.43;;;;;;;4.87;100.00;97128.63;5047907;28;20025;-73
2021/10/27 02:48:38;;;;;;;9.33;6.23;;;;;;;4.93;100.00;97130.00;5058712;28;20111;-73
2021/10/27 02:51:04;;;;;;;8.83;5.50;;;;;;;4.91;100.00;97124.84;5046411;28;20473;-73
2021/10/27 02:53:30;;;;;;;9.83;5.40;;;;;;;4.93;100.00;97133.44;5041530;28;20036;-72
2021/10/27 02:55:56;;;;;;;14.87;6.30;;;;;;;4.95;100.00;97134.13;5039201;28;20379;-73
2021/10/27 02:58:22;;;;;;;10.00;5.70;;;;;;;4.92;100.00;97141.31;5047055;28;20032;-73
2021/10/27 03:00:47;;;;;;;12.13;6.17;;;;;;;4.94;100.00;97137.69;5046075;28;20037;-72
2021/10/27 03:03:13;;;;;;;9.87;6.00;;;;;;;4.96;100.00;97133.22;5047410;28;20029;-72
2021/10/27 03:05:39;;;;;;;12.07;6.13;;;;;;;4.90;100.00;97138.84;5045854;28;20107;-73
2021/10/27 03:08:05;;;;;;;12.77;6.27;;;;;;;4.90;100.00;97138.84;5056348;28;20060;-73
2021/10/27 03:10:30;;;;;;;11.30;6.53;;;;;;;4.93;100.00;97137.81;5050419;28;20715;-73
2021/10/27 03:12:57;;;;;;;9.13;5.83;;;;;;;4.97;100.00;97136.66;5051384;28;20036;-73
2021/10/27 03:15:22;;;;;;;12.20;6.93;;;;;;;4.82;100.00;97135.06;5040828;28;20100;-73
2021/10/27 03:17:48;;;;;;;9.10;5.67;;;;;;;4.72;100.00;97133.06;5060057;28;20545;-72
2021/10/27 03:20:14;;;;;;;9.53;5.67;;;;;;;4.69;100.00;97127.22;5051302;28;20100;-73
2021/10/27 03:22:40;;;;;;;14.70;6.90;;;;;;;4.68;100.00;97130.75;5059645;28;20032;-73
2021/10/27 03:25:06;;;;;;;13.07;6.83;;;;;;;4.61;100.00;97132.09;5055520;28;20371;-73
2021/10/27 03:27:32;;;;;;;11.87;7.63;;;;;;;4.49;100.00;97152.81;5060557;28;20486;-73
2021/10/27 03:29:58;;;;;;;11.83;7.17;;;;;;;4.42;100.00;97148.06;5040274;28;20036;-73
2021/10/27 03:32:24;;;;;;;10.43;6.60;;;;;;;4.40;100.00;97153.41;5024716;28;20032;-73
2021/10/27 03:34:50;;;;;;;33.60;23.77;;;;;;;4.45;100.00;97146.09;5029497;28;20036;-73
2021/10/27 03:37:16;;;;;;;24.47;17.63;;;;;;;4.43;100.00;97154.97;5066540;28;20461;-72
2021/10/27 03:39:41;;;;;;;16.80;12.50;;;;;;;4.44;100.00;97151.44;5067405;28;20095;-73
2021/10/27 03:42:07;;;;;;;15.00;9.30;;;;;;;4.40;100.00;97150.78;5035621;28;20203;-73
2021/10/27 03:44:33;;;;;;;13.73;8.00;;;;;;;4.41;100.00;97146.41;5068572;28;20105;-73
2021/10/27 03:46:59;;;;;;;11.27;6.77;;;;;;;4.32;100.00;97149.59;5048127;28;20064;-73
2021/10/27 03:49:24;;;;;;;10.30;6.20;;;;;;;4.36;100.00;97146.72;5063460;28;20032;-73
2021/10/27 03:51:50;;;;;;;11.33;7.50;;;;;;;4.42;100.00;97143.69;5017755;28;20036;-73
2021/10/27 03:54:16;;;;;;;10.23;6.37;;;;;;;4.48;100.00;97142.47;5045429;28;20025;-72
2021/10/27 03:56:42;;;;;;;10.30;7.00;;;;;;;4.42;100.00;97143.69;5044275;28;20032;-73
2021/10/27 03:59:07;;;;;;;12.97;8.07;;;;;;;4.40;100.00;97139.53;5038445;28;20104;-73
2021/10/27 04:01:33;;;;;;;13.13;7.53;;;;;;;4.29;100.00;97145.41;5057187;28;20086;-72
2021/10/27 04:03:59;;;;;;;13.90;6.93;;;;;;;4.20;100.00;97152.06;5033014;28;20025;-73
2021/10/27 04:06:25;;;;;;;11.10;6.87;;;;;;;4.22;100.00;97154.56;5032775;28;20036;-73
2021/10/27 04:08:51;;;;;;;12.53;8.00;;;;;;;4.30;100.00;97154.09;5041963;28;20115;-73
2021/10/27 04:11:16;;;;;;;13.80;7.97;;;;;;;4.35;100.00;97157.22;5041967;28;20121;-72
2021/10/27 04:13:42;;;;;;;16.87;9.83;;;;;;;4.36;100.00;97157.13;5038079;28;20048;-73
2021/10/27 04:16:08;;;;;;;13.20;8.47;;;;;;;4.33;100.00;97164.31;5043090;28;20383;-72
2021/10/27 04:18:33;;;;;;;12.50;7.67;;;;;;;4.30;100.00;97164.50;5050493;28;20028;-73
2021/10/27 04:20:59;;;;;;;14.33;8.20;;;;;;;4.35;100.00;97167.63;5032262;28;20037;-73
2021/10/27 04:23:25;;;;;;;13.10;9.23;;;;;;;4.39;100.00;97164.75;5041389;28;20115;-73
2021/10/27 04:25:50;;;;;;;11.63;7.53;;;;;;;4.47;100.00;97161.66;5051528;28;20498;-72
2021/10/27 04:28:16;;;;;;;12.30;7.13;;;;;;;4.57;100.00;97161.91;5035314;28;20021;-73
2021/10/27 04:30:42;;;;;;;11.77;7.13;;;;;;;4.54;100.00;97168.13;5062022;28;20406;-73
2021/10/27 04:33:18;;;;;;;9.73;6.57;;;;;;;4.53;100.00;97163.00;5046659;28;20037;-73
2021/10/27 04:35:45;;;;;;;11.60;7.03;;;;;;;4.56;100.00;97166.28;5049167;28;20029;-73
2021/10/27 04:38:13;;;;;;;12.40;7.93;;;;;;;4.41;100.00;97156.84;5041922;28;20165;-73
2021/10/27 04:40:44;;;;;;;12.93;7.10;;;;;;;4.43;100.00;97155.81;5036612;28;20093;-73
2021/10/27 04:43:10;;;;;;;11.50;7.13;;;;;;;4.47;100.00;97152.06;5044551;28;20043;-73
2021/10/27 04:45:37;;;;;;;12.07;6.77;;;;;;;4.31;100.00;97156.59;5050966;28;20135;-73
2021/10/27 04:48:03;;;;;;;14.13;7.77;;;;;;;4.18;100.00;97156.53;5045773;28;20029;-73
2021/10/27 04:50:29;;;;;;;13.13;7.67;;;;;;;4.19;100.00;97162.56;5060924;28;20079;-73
2021/10/27 04:52:55;;;;;;;11.00;6.27;;;;;;;4.22;100.00;97151.94;5028926;28;20590;-73
2021/10/27 04:55:21;;;;;;;10.73;6.53;;;;;;;4.24;100.00;97150.94;5045805;28;20103;-73
2021/10/27 04:57:47;;;;;;;10.20;6.10;;;;;;;4.30;100.00;97154.09;5038483;28;20112;-73
2021/10/27 05:00:13;;;;;;;10.70;6.33;;;;;;;4.25;100.00;97159.56;5050763;28;20592;-73
2021/10/27 05:02:39;;;;;;;11.87;6.80;;;;;;;4.13;100.00;97155.16;5051938;28;20040;-73
2021/10/27 05:05:06;;;;;;;12.63;7.37;;;;;;;4.09;100.00;97153.66;5031843;28;20037;-73
2021/10/27 05:07:33;;;;;;;13.67;8.57;;;;;;;4.03;100.00;97151.47;5032624;28;20139;-73
2021/10/27 05:09:59;;;;;;;13.83;6.40;;;;;;;3.99;100.00;97156.88;5039701;28;20037;-73
2021/10/27 05:12:25;;;;;;;13.03;6.57;;;;;;;4.00;100.00;97160.28;5028813;28;20094;-73
2021/10/27 05:14:51;;;;;;;12.67;6.87;;;;;;;4.08;100.00;97162.41;5053770;28;20025;-73
2021/10/27 05:17:17;;;;;;;12.77;6.43;;;;;;;4.10;100.00;97156.19;5025241;28;20505;-73
2021/10/27 05:19:46;;;;;;;12.87;7.80;;;;;;;4.10;100.00;97163.16;5018493;28;20519;-73
2021/10/27 05:22:16;;;;;;;12.00;7.53;;;;;;;4.08;100.00;97160.63;5050548;28;20743;-72
2021/10/27 05:24:42;;;;;;;13.67;7.00;;;;;;;4.06;100.00;97165.13;5018242;28;20470;-73
2021/10/27 05:27:08;;;;;;;11.90;6.20;;;;;;;3.78;100.00;97158.19;5053353;28;20017;-73
2021/10/27 05:29:34;;;;;;;11.20;6.57;;;;;;;3.83;100.00;97158.75;5039659;28;20032;-73
2021/10/27 05:32:00;;;;;;;11.10;6.03;;;;;;;3.87;100.00;97168.03;5039301;28;20393;-73
2021/10/27 05:34:26;;;;;;;11.27;6.93;;;;;;;3.79;100.00;97165.06;5062987;28;20035;-73
2021/10/27 05:36:51;;;;;;;10.07;6.20;;;;;;;3.67;100.00;97164.03;5028181;28;20107;-73
2021/10/27 05:39:17;;;;;;;11.60;6.53;;;;;;;3.71;100.00;97159.50;5038043;28;20449;-73
2021/10/27 05:41:46;;;;;;;12.13;7.83;;;;;;;3.73;100.00;97160.25;5064788;28;20028;-73
2021/10/27 05:44:12;;;;;;;15.73;9.03;;;;;;;3.84;100.00;97152.59;5054943;28;20095;-73
2021/10/27 05:46:41;;;;;;;14.83;8.50;;;;;;;3.78;100.00;97155.56;5043096;28;20021;-73
2021/10/27 05:49:34;;;;;;;13.37;7.23;;;;;;;3.78;100.00;97151.19;5050978;28;20398;-74
2021/10/27 05:54:59;;;;;;;16.90;11.37;;;;;;;3.73;100.00;97158.47;5034006;28;20029;-74
2021/10/27 05:57:41;;;;;;;24.83;14.20;;;;;;;3.70;100.00;97161.25;5051566;28;20028;-73
2021/10/27 06:00:10;;;;;;;21.07;11.90;;;;;;;3.72;100.00;97159.41;5045553;28;20075;-73
2021/10/27 06:02:36;;;;;;;20.80;11.10;;;;;;;3.77;100.00;97157.34;5043848;28;20033;-73
2021/10/27 06:05:03;;;;;;;18.53;10.47;;;;;;;3.84;100.00;97160.41;5056829;28;20029;-73
2021/10/27 06:07:31;;;;;;;15.20;10.13;;;;;;;3.89;100.00;97170.50;5040218;28;20029;-73
2021/10/27 06:09:57;;;;;;;15.73;8.90;;;;;;;3.94;100.00;97171.91;5042618;28;20037;-73
2021/10/27 06:12:23;;;;;;;19.13;9.53;;;;;;;3.91;100.00;97173.88;5023514;28;20112;-73
2021/10/27 06:14:49;;;;;;;22.50;8.93;;;;;;;3.80;100.00;97173.72;5054724;28;20034;-73
2021/10/27 06:17:15;;;;;;;14.10;8.97;;;;;;;3.72;100.00;97163.75;5052235;28;20028;-73
2021/10/27 06:19:41;;;;;;;15.30;8.87;;;;;;;3.75;100.00;97168.78;5050381;28;20053;-73
2021/10/27 06:22:08;;;;;;;16.03;10.07;;;;;;;3.90;100.00;97167.84;5049147;28;20075;-73
2021/10/27 06:24:35;;;;;;;20.13;11.00;;;;;;;3.99;100.00;97175.09;5060722;28;20074;-74
2021/10/27 06:27:03;;;;;;;18.07;10.30;;;;;;;4.04;100.00;97180.00;5027132;28;20431;-74
2021/10/27 06:29:38;;;;;;;19.80;10.37;;;;;;;4.09;100.00;97180.56;5051587;28;20040;-74
2021/10/27 06:32:16;;;;;;;18.43;10.07;;;;;;;4.26;100.00;97174.28;5051779;28;20113;-73
2021/10/27 06:34:48;;;;;;;18.40;10.30;;;;;;;4.36;100.00;97177.97;5021792;28;20481;-73
2021/10/27 06:37:31;;;;;;;20.67;11.00;;;;;;;4.49;100.00;97173.66;5048483;28;20024;-73
2021/10/27 06:48:09;;;;;;;15.93;10.80;;;;;;;5.12;100.00;97184.31;5054972;28;20028;-75
2021/10/27 06:50:35;;;;;;;21.80;10.90;;;;;;;5.32;100.00;97194.25;5046031;28;20028;-75
2021/10/27 06:53:01;;;;;;;18.77;10.97;;;;;;;5.54;100.00;97187.59;5031355;28;20041;-75
2021/10/27 06:55:27;;;;;;;17.93;10.27;;;;;;;5.63;100.00;97190.41;5052673;28;20039;-75
2021/10/27 06:57:54;;;;;;;13.70;9.60;;;;;;;5.99;100.00;97195.81;5049347;28;20040;-74
2021/10/27 07:00:23;;;;;;;17.20;9.57;;;;;;;6.06;100.00;97191.84;5056445;28;20028;-74
2021/10/27 07:16:17;;;;;;;16.53;10.27;;;;;;;7.79;100.00;97194.78;5052149;28;20088;-75
2021/10/27 07:18:43;;;;;;;14.17;8.60;;;;;;;7.82;100.00;97198.97;5038721;28;20025;-74
2021/10/27 07:21:09;;;;;;;12.07;8.03;;;;;;;8.41;100.00;97193.44;5053606;28;20036;-75
2021/10/27 07:23:37;;;;;;;14.53;8.07;;;;;;;8.47;100.00;97199.03;5066854;28;20099;-75
2021/10/27 07:26:03;;;;;;;18.30;9.13;;;;;;;8.54;100.00;97202.00;5037164;28;20500;-75
2021/10/27 07:28:31;;;;;;;14.07;7.93;;;;;;;8.93;100.00;97199.75;5041310;28;20028;-77
2021/10/27 07:30:58;;;;;;;12.40;7.33;;;;;;;9.31;100.00;97199.19;5062700;28;20039;-76
2021/10/27 07:33:26;;;;;;;12.60;8.07;;;;;;;9.29;100.00;97205.53;5050210;28;20115;-75
2021/10/27 07:35:56;;;;;;;12.03;7.63;;;;;;;9.74;99.48;97205.28;5069159;28;20081;-75
2021/10/27 07:41:08;;;;;;;13.60;7.70;;;;;;;10.19;97.38;97205.75;5036779;28;20033;-75
2021/10/27 07:43:35;;;;;;;10.10;6.67;;;;;;;10.38;96.22;97200.59;5039483;28;20040;-74
2021/10/27 07:46:01;;;;;;;11.97;7.30;;;;;;;10.31;96.84;97209.16;5046549;28;20029;-75
2021/10/27 07:48:28;;;;;;;13.10;7.17;;;;;;;10.45;98.18;97208.78;5062152;28;20075;-75
2021/10/27 07:50:54;;;;;;;11.03;6.33;;;;;;;10.74;93.44;97205.38;5057310;28;20029;-75
2021/10/27 07:53:21;;;;;;;11.03;6.93;;;;;;;11.09;90.21;97205.66;5054191;28;20104;-75
2021/10/27 07:55:50;;;;;;;11.73;7.67;;;;;;;10.47;95.43;97206.84;5040466;28;20037;-75
2021/10/27 07:58:18;;;;;;;11.03;6.60;;;;;;;10.52;95.14;97207.25;5043978;28;20455;-75
2021/10/27 08:00:44;;;;;;;14.83;7.10;;;;;;;10.51;95.17;97210.03;5038479;28;20039;-75
2021/10/27 08:03:11;;;;;;;12.80;7.30;;;;;;;11.33;90.90;97207.91;5060615;28;20035;-75
2021/10/27 08:05:40;;;;;;;13.33;7.03;;;;;;;11.12;91.57;97209.84;5049033;28;20502;-73
2021/10/27 08:08:14;;;;;;;14.47;7.60;;;;;;;11.55;89.39;97206.75;5050037;28;20035;-73
2021/10/27 08:10:41;;;;;;;13.47;6.73;;;;;;;11.95;87.45;97212.78;5044106;28;20277;-73
2021/10/27 08:13:09;;;;;;;9.77;5.43;;;;;;;12.08;88.43;97204.56;5055239;28;20070;-75
2021/10/27 08:15:34;;;;;;;11.53;6.90;;;;;;;12.02;91.09;97212.06;5049859;28;20064;-75
2021/10/27 08:18:02;;;;;;;12.67;6.30;;;;;;;12.55;84.92;97204.47;5060925;28;20727;-75
2021/10/27 08:20:28;;;;;;;13.13;7.20;;;;;;;12.96;84.43;97197.81;5038892;28;20494;-73
2021/10/27 08:22:57;;;;;;;12.03;6.33;;;;;;;12.60;85.45;97203.03;5027201;28;20056;-73
2021/10/27 08:25:30;;;;;;;9.80;6.13;;;;;;;12.13;87.85;97203.13;5048378;28;20029;-73
2021/10/27 08:28:02;;;;;;;12.23;5.87;;;;;;;13.08;85.31;97195.78;5036285;28;20040;-73
2021/10/27 08:31:16;;;;;;;13.27;6.93;;;;;;;11.85;89.48;97206.72;5037172;28;20564;-73
2021/10/27 08:33:35;;;;;;;9.07;5.87;;;;;;;13.37;83.36;97192.91;5040398;28;20037;-73
2021/10/27 08:36:00;;;;;;;11.68;5.85;;;;;;;13.28;83.00;97199.97;5047562;28;20150;-73
2021/10/27 08:38:26;;;;;;;11.73;5.37;;;;;;;14.43;80.26;97198.84;5030054;28;20434;-73
2021/10/27 08:40:53;;;;;;;8.33;4.80;;;;;;;14.76;74.67;97197.16;5047309;28;20074;-73
2021/10/27 08:43:19;;;;;;;8.70;5.20;;;;;;;13.25;83.41;97199.44;5031692;28;20079;-73
2021/10/27 08:45:44;;;;;;;9.47;5.33;;;;;;;13.60;83.13;97195.91;5056491;28;20095;-73
2021/10/27 08:48:12;;;;;;;7.90;4.90;;;;;;;14.25;79.78;97198.06;5064061;28;20086;-73
2021/10/27 08:50:42;;;;;;;9.30;6.03;;;;;;;13.47;81.85;97203.41;5057416;28;20024;-73
2021/10/27 08:53:09;;;;;;;10.33;5.33;;;;;;;14.28;80.23;97195.94;5064070;28;20029;-73
2021/10/27 08:55:35;;;;;;;10.17;4.80;;;;;;;14.35;78.64;97202.28;5059676;28;20115;-73
2021/10/27 08:58:02;;;;;;;8.67;5.00;;;;;;;15.07;75.95;97193.91;5028055;28;20082;-73
2021/10/27 09:03:18;;;;;;;7.33;4.93;;;;;;;14.47;77.50;97192.22;5039337;28;20025;-73
2021/10/27 09:06:00;;;;;;;9.70;4.90;;;;;;;14.24;78.43;97194.59;5040237;28;20090;-73
2021/10/27 09:17:15;;;;;;;12.15;3.90;;;;;;;16.31;67.80;97176.84;5053165;28;20040;-73
2021/10/27 09:55:54;;;;;;;7.82;2.60;;;;;;;18.06;58.04;97157.47;5040308;28;20032;-73
2021/10/27 10:06:36;;;;;;;4.28;1.92;;;;;;;17.64;56.76;97149.06;5059853;28;20056;-73
2021/10/27 10:09:03;;;;;;;5.03;1.73;;;;;;;17.55;57.79;97152.81;5035595;28;20044;-73
2021/10/27 10:11:30;;;;;;;4.32;2.13;;;;;;;17.77;57.06;97151.16;5061225;28;20028;-74
2021/10/27 10:14:02;;;;;;;2.55;1.20;;;;;;;18.49;54.63;97139.81;5064827;28;20125;-73
2021/10/27 10:16:36;;;;;;;4.13;1.30;;;;;;;17.72;55.22;97158.81;5056257;28;20040;-73
2021/10/27 10:19:07;;;;;;;3.50;1.40;;;;;;;16.88;57.64;97150.03;5061681;28;20082;-74
2021/10/27 10:21:44;;;;;;;3.90;1.45;;;;;;;17.05;55.63;97142.78;5062378;28;20066;-73
2021/10/27 10:24:24;;;;;;;4.57;1.98;;;;;;;18.23;56.18;97136.81;5043951;28;20037;-73
2021/10/27 10:26:52;;;;;;;3.25;1.77;;;;;;;18.44;52.94;97133.38;5061663;28;20591;-74
2021/10/27 10:29:40;;;;;;;5.30;2.03;;;;;;;18.70;53.13;97132.88;5052751;28;20029;-74
2021/10/27 10:32:20;;;;;;;3.65;1.70;;;;;;;17.82;54.99;97129.31;5033650;28;20672;-73
2021/10/27 10:34:57;;;;;;;7.38;2.50;;;;;;;16.58;58.73;97133.91;5042971;28;20040;-73
2021/10/27 10:37:35;;;;;;;5.30;1.73;;;;;;;17.95;55.25;97126.00;5035014;28;20509;-72
2021/10/27 10:40:59;;;;;;;3.60;1.70;;;;;;;18.28;54.50;97126.44;5031868;28;20057;-73
2021/10/27 11:48:05;;;;;;;6.28;1.92;;;;;;;19.18;48.34;97038.03;5053579;28;20030;-73
2021/10/27 11:50:37;;;;;;;3.90;1.52;;;;;;;18.99;48.35;97039.50;5059332;28;20685;-74
2021/10/27 11:53:06;;;;;;;5.60;2.15;;;;;;;18.80;49.31;97032.97;5053198;28;20032;-74
2021/10/27 11:55:34;;;;;;;6.22;2.40;;;;;;;18.21;50.65;97033.19;5063596;28;20033;-73
2021/10/27 11:58:01;;;;;;;8.27;2.40;;;;;;;17.19;53.83;97036.50;5036429;28;20079;-73
2021/10/27 12:00:39;;;;;;;4.80;2.17;;;;;;;17.14;54.22;97028.25;5045191;28;20090;-73
2021/10/27 12:03:10;;;;;;;6.82;2.15;;;;;;;17.28;53.29;97023.13;5059986;28;20029;-73
2021/10/27 12:13:51;;;;;;;4.97;1.90;;;;;;;17.72;51.67;97004.50;5054877;28;20064;-73
2021/10/27 12:19:11;;;;;;;4.68;1.92;;;;;;;18.83;48.52;97007.78;5060304;28;20036;-73
2021/10/27 12:21:45;;;;;;;2.95;1.40;;;;;;;18.98;47.19;96999.69;5055521;28;20082;-73
2021/10/27 12:24:15;;;;;;;5.95;1.80;;;;;;;18.90;47.49;96995.34;5036061;28;20544;-73
2021/10/27 12:26:46;;;;;;;5.68;1.45;;;;;;;19.86;45.65;96990.22;5033550;28;20037;-73
2021/10/27 12:29:22;;;;;;;4.05;1.40;;;;;;;20.18;42.85;96985.16;5050955;28;20448;-74
2021/10/27 12:32:06;;;;;;;4.07;1.20;;;;;;;18.42;46.26;96984.44;5014502;28;20052;-74
2021/10/27 12:34:33;;;;;;;8.77;1.77;;;;;;;19.72;44.51;96986.66;5026940;28;20052;-73
2021/10/27 12:37:00;;;;;;;4.40;1.40;;;;;;;19.27;44.73;96985.34;5072174;28;20501;-74
2021/10/27 12:39:46;;;;;;;3.75;1.75;;;;;;;19.17;45.77;96984.88;5041436;28;20028;-73
2021/10/27 12:42:13;;;;;;;3.83;1.73;;;;;;;19.39;44.05;96983.78;5056909;28;20032;-73
2021/10/27 12:44:52;;;;;;;5.93;1.70;;;;;;;19.54;43.25;96978.31;5034244;28;20371;-73
2021/10/27 12:47:23;;;;;;;5.53;1.40;;;;;;;19.41;42.78;96976.41;5041375;28;20044;-73
2021/10/27 12:50:03;;;;;;;3.30;1.10;;;;;;;18.96;44.51;96969.75;5037270;28;20033;-74
2021/10/27 12:52:36;;;;;;;2.88;1.42;;;;;;;19.64;43.89;96975.31;5043000;28;20029;-73
2021/10/27 12:55:14;;;;;;;3.15;1.48;;;;;;;19.53;43.76;96974.00;5049085;28;20478;-73
2021/10/27 12:57:47;;;;;;;2.58;1.33;;;;;;;19.23;44.44;96970.75;5038319;28;20598;-73
2021/10/27 13:00:31;;;;;;;2.58;1.17;;;;;;;19.94;42.76;96960.66;5056367;28;20685;-73
2021/10/27 13:09:21;;;;;;;6.10;1.83;;;;;;;19.45;45.55;96948.34;5049837;28;20068;-73
2021/10/27 13:22:38;;;;;;;3.17;1.70;;;;;;;18.52;47.35;96960.97;5059977;28;20036;-73
2021/10/27 13:30:49;;;;;;;4.35;2.15;;;;;;;17.84;49.92;96959.63;5043417;28;20028;-72
2021/10/27 13:33:17;;;;;;;5.13;2.80;;;;;;;18.23;48.97;96951.28;5031408;28;20037;-73
2021/10/27 13:35:43;;;;;;;4.25;2.30;;;;;;;18.65;48.54;96952.28;5048312;28;20094;-73
2021/10/27 13:38:10;;;;;;;8.77;3.00;;;;;;;18.16;49.19;96952.22;5051916;28;20482;-73
2021/10/27 13:40:41;;;;;;;5.80;2.60;;;;;;;18.54;49.07;96955.44;5051720;28;20036;-73
2021/10/27 13:43:20;;;;;;;6.55;2.78;;;;;;;18.60;49.91;96944.03;5032050;28;20630;-73
2021/10/27 13:45:56;;;;;;;3.95;1.90;;;;;;;18.56;50.23;96953.41;5037425;28;20059;-73
2021/10/27 13:48:40;;;;;;;5.80;3.15;;;;;;;16.85;54.44;96953.78;5044963;28;20025;-73
2021/10/27 14:07:25;;;;;;;5.72;3.58;;;;;;;17.37;54.77;96942.25;5054414;28;20067;-73
2021/10/27 14:10:00;;;;;;;8.40;3.70;;;;;;;17.47;54.66;96942.81;5053456;28;20064;-73
2021/10/27 14:15:35;;;;;;;7.53;3.67;;;;;;;16.96;57.23;96946.19;5059410;28;20025;-73
2021/10/27 14:50:31;;;;;;;6.85;3.58;;;;;;;14.57;65.95;96930.91;5060722;28;20060;-74
2021/10/27 14:58:45;;;;;;;8.27;3.60;;;;;;;14.92;65.16;96918.25;5060466;28;20033;-73
2021/10/27 15:21:54;;;;;;;6.33;3.27;;;;;;;13.68;69.96;96895.47;5048709;28;20028;-74
2021/10/27 15:30:07;;;;;;;10.30;4.63;;;;;;;13.42;72.71;96897.38;5032954;28;20037;-74
2021/10/27 15:51:28;;;;;;;8.27;4.13;;;;;;;12.91;76.41;96883.25;5060598;28;20040;-74
2021/10/27 15:53:55;;;;;;;9.13;4.00;;;;;;;12.82;77.09;96879.78;5055546;28;20040;-74
2021/10/27 15:56:23;;;;;;;8.17;4.23;;;;;;;12.63;77.79;96891.38;5063158;28;20477;-76
2021/10/27 15:58:49;;;;;;;8.63;5.23;;;;;;;12.61;77.80;96892.50;5015328;28;20482;-74
2021/10/27 16:01:15;;;;;;;8.20;4.47;;;;;;;12.63;78.62;96894.00;5044332;28;20078;-75
2021/10/27 16:03:41;;;;;;;7.93;4.50;;;;;;;12.54;80.05;96889.69;5065054;28;20028;-75
2021/10/27 16:06:07;;;;;;;12.97;7.80;;;;;;;12.54;79.81;96894.09;5041918;28;20123;-75
2021/10/27 16:08:38;;;;;;;10.43;6.93;;;;;;;12.50;79.94;96886.50;5042765;28;20104;-74
2021/10/27 16:11:04;;;;;;;6.97;4.53;;;;;;;12.26;80.58;96892.44;5053448;28;20068;-74
2021/10/27 16:13:32;;;;;;;11.17;7.23;;;;;;;12.13;81.32;96892.00;5060960;28;20532;-75
2021/10/27 16:15:59;;;;;;;13.90;8.30;;;;;;;12.00;83.27;96892.41;5061030;28;20028;-74